Junction, TX

7:10 PM CST on February 27, 2015 (GMT -0600)
APRSWXNET Junction TX US | Change Station
CLOSE
Current Station
Personal Weather Station
Location: Junction, TX
Elevation: 1715 ft
Nearby Weather Stations

Elev 1715 ft 30.47 °N, 99.78 °W | Updated 47 minutes ago

Overcast
Overcast
28 °F
Feels Like 20 °F
N
8
Wind Variable Wind from SSW
Gusts 15.0 mph

Today
High -- | Low -- °F
--% Chance of Precip.
Yesterday
High -- | Low -- °F
Precip. -- in
7:07 AM 6:36 PM
Waxing Gibbous, 73% visible
Pressure 30.27 in
Visibility 3.0 miles
Clouds Overcast 600 ft
Windchill 20 °F
Dew Point 26 °F
Humidity 91%
Rainfall 0.01 in
Snow Depth Not available.
UV 0 out of 12
Pollen 4.00 out of 12
Air Quality Not available.
Flu Activity Not available.
SPECI KJCT 280100Z AUTO 05010KT 3SM BR OVC006 M02/M03 A3027 RMK AO2 CIG 005V011 I1000 T10221033

More Conditions Fewer Conditions

Pressure 30.27 in
Visibility 3.0 miles
Clouds Overcast 600 ft
Windchill 20 °F
Dew Point 26 °F
Humidity 91%
Rainfall 0.01 in
Snow Depth Not available.
UV 0 out of 12
Pollen 4.00 out of 12
Air Quality Not available.
Flu Activity Not available.
SPECI KJCT 280100Z AUTO 05010KT 3SM BR OVC006 M02/M03 A3027 RMK AO2 CIG 005V011 I1000 T10221033

More Conditions Fewer Conditions

10-Day Weather Forecast

Almanac

Astronomy

Feb. 27, 2015 Rise Set
Actual Time
Civil Twilight
Nautical Twilight
Astronomical Twilight
Moon
Length of Visible Light
Length of Day
Tomorrow will be .
, % of the Moon is Illuminated

Today's Extremes

State Highs State Lows

Community

WunderPhotos

Upload Photos

1,800,911 photos uploaded!

WunderBlogs® & News

Nearby

Air Quality

  Air Quality AQ Index Pollutant
Not available.

Snow Depth

Station Depth Elevation

Earthquake Activity

City Distance Mag. Time & Date
Minimum magnitude displayed is 2.5.

Coastal Water Temperatures

Place Temperature

Nearby Weather Stations

Winter Weather Advisory
Statement as of 3:08 PM CST on February 27, 2015

... Winter Weather Advisory in effect until noon CST Saturday...

The National Weather Service in San Angelo has issued a Winter
Weather Advisory for freezing drizzle... which is in effect until noon CST
Saturday.

* Impacts: slick and hazardous roads... especially bridges...
overpasses... and secondary roads.

* Timing: through noon Saturday.

* Accumulations: a glaze to a tenth of an inch of ice is expected.

Precautionary/preparedness actions...

A Winter Weather Advisory means that periods of snow... sleet... or
freezing rain will cause travel difficulties. Be prepared for
slippery roads and limited visibilities and use caution while
driving.